createdAt,value
2018-12-17T00:01:28.786Z,21.60
2018-12-17T00:03:58.167Z,22.37
2018-12-17T00:06:27.370Z,22.27
2018-12-17T00:08:56.543Z,22.02
2018-12-17T00:11:26.154Z,22.50
2018-12-17T00:13:55.555Z,23.45
2018-12-17T00:16:24.773Z,21.30
2018-12-17T00:18:54.022Z,25.12
2018-12-17T00:21:23.178Z,27.65
2018-12-17T00:23:52.426Z,23.07
2018-12-17T00:26:21.778Z,24.32
2018-12-17T00:28:51.108Z,23.25
2018-12-17T00:31:20.295Z,26.00
2018-12-17T00:33:49.538Z,22.73
2018-12-17T00:36:18.739Z,27.90
2018-12-17T00:38:47.803Z,29.95
2018-12-17T00:41:17.082Z,28.47
2018-12-17T00:43:46.295Z,25.92
2018-12-17T00:46:15.491Z,21.62
2018-12-17T00:48:44.835Z,17.87
2018-12-17T00:51:14.352Z,21.50
2018-12-17T00:53:43.706Z,28.25
2018-12-17T00:56:13.244Z,28.62
2018-12-17T00:58:42.543Z,27.02
2018-12-17T01:01:12.223Z,21.27
2018-12-17T01:03:41.593Z,19.70
2018-12-17T01:06:10.734Z,22.73
2018-12-17T01:08:39.962Z,29.60
2018-12-17T01:11:09.225Z,35.00
2018-12-17T01:13:38.485Z,41.00
2018-12-17T01:16:08.081Z,30.85
2018-12-17T01:18:37.314Z,30.97
2018-12-17T01:21:06.436Z,29.02
2018-12-17T01:23:35.717Z,27.60
2018-12-17T01:26:04.916Z,27.80
2018-12-17T01:28:34.874Z,26.57
2018-12-17T01:31:04.098Z,29.23
2018-12-17T01:33:32.824Z,24.72
2018-12-17T01:36:02.020Z,24.67
2018-12-17T01:38:31.251Z,26.35
2018-12-17T01:41:00.399Z,26.62
2018-12-17T01:43:29.941Z,28.80
2018-12-17T01:45:59.396Z,27.48
2018-12-17T01:48:28.581Z,25.12
2018-12-17T01:50:57.751Z,25.88
2018-12-17T01:53:26.967Z,23.87
2018-12-17T01:55:58.855Z,24.07
2018-12-17T01:58:29.342Z,23.47
2018-12-17T02:00:58.683Z,24.47
2018-12-17T02:03:28.189Z,25.30
2018-12-17T02:05:57.334Z,28.67
2018-12-17T02:08:26.557Z,27.52
2018-12-17T02:10:55.541Z,25.52
2018-12-17T02:13:24.615Z,23.87
2018-12-17T02:15:53.992Z,25.10
2018-12-17T02:18:23.163Z,23.67
2018-12-17T02:20:52.398Z,23.83
2018-12-17T02:23:21.534Z,23.98
2018-12-17T02:25:50.775Z,22.87
2018-12-17T02:28:20.125Z,23.77
2018-12-17T02:30:49.580Z,22.27
2018-12-17T02:33:18.708Z,24.77
2018-12-17T02:35:47.888Z,22.32
2018-12-17T02:38:17.130Z,22.45
2018-12-17T02:40:46.130Z,22.22
2018-12-17T02:43:15.551Z,21.93
2018-12-17T02:45:44.876Z,20.55
2018-12-17T02:48:14.062Z,20.92
2018-12-17T02:50:43.291Z,19.75
2018-12-17T02:53:12.536Z,21.70
2018-12-17T02:55:41.840Z,20.37
2018-12-17T02:58:11.066Z,21.10
2018-12-17T03:00:40.297Z,28.67
2018-12-17T03:03:09.250Z,31.50
2018-12-17T03:05:38.629Z,22.70
2018-12-17T03:08:07.990Z,27.02
2018-12-17T03:10:37.227Z,27.20
2018-12-17T03:13:06.372Z,29.05
2018-12-17T03:15:35.586Z,26.90
2018-12-17T03:18:05.143Z,29.85
2018-12-17T03:20:34.474Z,29.77
2018-12-17T03:23:03.657Z,32.13
2018-12-17T03:25:32.710Z,33.02
2018-12-17T03:28:02.041Z,30.05
2018-12-17T03:30:31.087Z,28.80
2018-12-17T03:33:00.288Z,31.80
2018-12-17T03:35:29.803Z,30.17
2018-12-17T03:37:59.083Z,30.82
2018-12-17T03:40:28.475Z,31.42
2018-12-17T03:42:57.929Z,33.67
2018-12-17T03:45:27.014Z,32.35
2018-12-17T03:47:56.087Z,34.03
2018-12-17T03:50:25.976Z,34.73
2018-12-17T03:52:54.966Z,31.07
2018-12-17T03:55:24.242Z,33.53
2018-12-17T03:57:53.532Z,30.48
2018-12-17T04:00:22.422Z,30.40
2018-12-17T04:02:51.503Z,28.40
2018-12-17T04:05:20.899Z,25.30
2018-12-17T04:07:49.668Z,27.30
2018-12-17T04:10:19.200Z,30.82
2018-12-17T04:12:48.827Z,30.12
2018-12-17T04:15:18.379Z,28.07
2018-12-17T04:17:47.715Z,27.10
2018-12-17T04:20:16.899Z,26.65
2018-12-17T04:22:45.974Z,26.48
2018-12-17T04:25:15.364Z,27.07
2018-12-17T04:27:45.109Z,23.62
2018-12-17T04:30:14.799Z,26.15
2018-12-17T04:32:44.503Z,27.82
2018-12-17T04:35:13.510Z,26.93
2018-12-17T04:37:42.693Z,25.60
2018-12-17T04:40:12.301Z,24.63
2018-12-17T04:42:41.162Z,25.20
2018-12-17T04:45:11.094Z,24.32
2018-12-17T04:47:40.291Z,28.77
2018-12-17T04:50:09.453Z,26.62
2018-12-17T04:52:38.559Z,28.40
2018-12-17T04:55:07.985Z,29.50
2018-12-17T04:57:37.396Z,28.45
2018-12-17T05:00:09.921Z,27.58
2018-12-17T05:02:39.182Z,26.52
2018-12-17T05:05:08.474Z,26.70
2018-12-17T05:07:37.206Z,27.77
2018-12-17T05:10:07.072Z,28.32
2018-12-17T05:12:36.374Z,23.62
2018-12-17T05:15:06.281Z,25.02
2018-12-17T05:17:36.001Z,26.20
2018-12-17T05:20:05.344Z,24.87
2018-12-17T05:22:34.286Z,24.40
2018-12-17T05:25:03.902Z,24.05
2018-12-17T05:27:33.087Z,24.32
2018-12-17T05:30:01.954Z,22.90
2018-12-17T05:32:31.498Z,21.60
2018-12-17T05:35:01.309Z,22.02
2018-12-17T05:37:30.566Z,20.77
2018-12-17T05:40:00.104Z,20.30
2018-12-17T05:42:29.315Z,19.55
2018-12-17T05:44:58.498Z,18.80
2018-12-17T05:47:27.614Z,17.45
2018-12-17T05:49:57.488Z,17.25
2018-12-17T05:52:26.675Z,17.10
2018-12-17T05:57:29.745Z,16.40
2018-12-17T05:59:58.924Z,16.07
2018-12-17T06:02:28.240Z,16.97
2018-12-17T06:04:57.400Z,17.50
2018-12-17T06:07:26.592Z,16.12
2018-12-17T06:09:55.701Z,21.20
2018-12-17T06:12:24.892Z,16.35
2018-12-17T06:14:54.879Z,15.53
2018-12-17T06:17:24.308Z,16.35
2018-12-17T06:19:53.544Z,18.57
2018-12-17T06:22:22.857Z,16.97
2018-12-17T06:24:52.169Z,16.52
2018-12-17T06:27:21.366Z,16.57
2018-12-17T06:29:50.632Z,17.35
2018-12-17T06:32:20.497Z,18.62
2018-12-17T06:34:50.190Z,15.03
2018-12-17T06:37:19.314Z,14.25
2018-12-17T06:39:48.531Z,16.37
2018-12-17T06:42:18.266Z,15.78
2018-12-17T06:44:47.302Z,14.83
2018-12-17T06:47:23.067Z,18.35
2018-12-17T06:49:52.350Z,16.90
2018-12-17T06:52:21.579Z,17.15
2018-12-17T06:54:54.743Z,16.55
2018-12-17T06:57:21.786Z,16.85
2018-12-17T06:59:51.401Z,16.07
2018-12-17T07:02:21.034Z,17.05
2018-12-17T07:04:50.322Z,15.35
2018-12-17T07:07:19.494Z,14.70
2018-12-17T07:09:48.649Z,14.23
2018-12-17T07:12:17.874Z,14.53
2018-12-17T07:14:47.314Z,15.48
2018-12-17T07:17:16.537Z,16.75
2018-12-17T07:19:46.885Z,18.17
2018-12-17T07:22:16.018Z,17.12
2018-12-17T07:24:45.065Z,17.87
2018-12-17T07:27:14.672Z,18.67
2018-12-17T07:29:49.749Z,18.87
2018-12-17T07:32:15.730Z,18.42
2018-12-17T07:34:46.177Z,18.60
2018-12-17T07:37:15.517Z,17.50
2018-12-17T07:39:45.034Z,18.52
2018-12-17T07:42:14.416Z,18.35
2018-12-17T07:44:43.547Z,16.65
2018-12-17T07:47:12.778Z,17.75
2018-12-17T07:49:41.933Z,16.93
2018-12-17T07:52:11.390Z,18.00
2018-12-17T07:54:40.634Z,18.65
2018-12-17T07:57:10.022Z,17.60
2018-12-17T07:59:38.738Z,16.67
2018-12-17T08:02:07.961Z,16.93
2018-12-17T08:04:38.423Z,17.12
2018-12-17T08:07:07.571Z,15.88
2018-12-17T08:09:36.698Z,16.80
2018-12-17T08:12:06.202Z,15.40
2018-12-17T08:14:35.751Z,15.78
2018-12-17T08:17:05.032Z,14.95
2018-12-17T08:19:34.409Z,15.35
2018-12-17T08:22:07.264Z,15.93
2018-12-17T08:24:36.535Z,15.10
2018-12-17T08:27:05.902Z,13.43
2018-12-17T08:29:35.176Z,16.17
2018-12-17T08:32:04.499Z,15.88
2018-12-17T08:34:33.765Z,13.20
2018-12-17T08:37:02.919Z,12.25
2018-12-17T08:39:32.191Z,11.75
2018-12-17T08:42:01.668Z,12.50
2018-12-17T08:44:30.794Z,11.85
2018-12-17T08:47:00.074Z,11.68
2018-12-17T08:49:29.294Z,12.53
2018-12-17T08:51:58.570Z,12.25
2018-12-17T08:54:28.029Z,12.40
2018-12-17T08:56:57.249Z,12.65
2018-12-17T08:59:26.408Z,12.00
2018-12-17T09:01:55.595Z,11.57
2018-12-17T09:04:24.993Z,12.33
2018-12-17T09:06:54.717Z,12.68
2018-12-17T09:09:23.947Z,12.15
2018-12-17T09:11:53.190Z,16.17
2018-12-17T09:14:23.147Z,11.43
2018-12-17T09:16:52.294Z,11.00
2018-12-17T09:19:23.295Z,10.60
2018-12-17T09:21:52.678Z,9.55
2018-12-17T09:24:21.742Z,10.08
2018-12-17T09:26:51.106Z,9.78
2018-12-17T09:29:20.569Z,9.95
2018-12-17T09:31:49.675Z,10.28
2018-12-17T09:34:18.798Z,10.43
2018-12-17T09:36:47.909Z,11.12
2018-12-17T09:39:18.599Z,11.20
2018-12-17T09:41:48.033Z,10.50
2018-12-17T09:44:17.357Z,9.60
2018-12-17T09:46:46.811Z,10.15
2018-12-17T09:49:15.741Z,9.53
2018-12-17T09:51:44.985Z,10.05
2018-12-17T09:54:14.596Z,9.70
2018-12-17T09:56:43.802Z,9.33
2018-12-17T09:59:12.902Z,9.43
2018-12-17T10:01:42.018Z,7.87
2018-12-17T10:04:11.199Z,7.90
2018-12-17T10:06:40.075Z,7.50
2018-12-17T10:09:09.438Z,7.40
2018-12-17T10:11:38.594Z,7.87
2018-12-17T10:14:07.509Z,9.03
2018-12-17T10:16:37.002Z,9.30
2018-12-17T10:19:06.243Z,8.77
2018-12-17T10:21:35.122Z,7.83
2018-12-17T10:24:04.405Z,8.00
2018-12-17T10:26:33.829Z,6.50
2018-12-17T10:29:03.151Z,6.37
2018-12-17T10:31:32.852Z,6.83
2018-12-17T10:34:02.184Z,6.57
2018-12-17T10:36:31.305Z,7.53
2018-12-17T10:39:00.441Z,6.47
2018-12-17T10:41:29.614Z,6.80
2018-12-17T10:43:58.780Z,9.73
2018-12-17T10:46:27.979Z,11.60
2018-12-17T10:48:57.539Z,8.63
2018-12-17T10:51:26.939Z,9.00
2018-12-17T10:53:56.418Z,8.97
2018-12-17T10:56:25.659Z,7.07
2018-12-17T10:58:54.486Z,4.97
2018-12-17T11:01:29.234Z,5.20
2018-12-17T11:04:07.042Z,4.70
2018-12-17T11:06:36.438Z,5.00
2018-12-17T11:09:07.686Z,4.47
2018-12-17T11:11:36.953Z,5.10
2018-12-17T11:14:06.701Z,4.17
2018-12-17T11:16:36.157Z,4.37
2018-12-17T11:19:05.565Z,4.17
2018-12-17T11:21:34.828Z,3.90
2018-12-17T11:24:03.823Z,5.20
2018-12-17T11:26:33.233Z,4.00
2018-12-17T11:29:02.414Z,4.30
2018-12-17T11:31:31.634Z,4.27
2018-12-17T11:34:01.084Z,5.33
2018-12-17T11:36:30.292Z,4.90
2018-12-17T11:38:59.353Z,4.23
2018-12-17T11:41:28.651Z,4.17
2018-12-17T11:43:57.774Z,4.30
2018-12-17T11:46:26.993Z,3.83
2018-12-17T11:48:56.519Z,3.17
2018-12-17T11:51:26.099Z,4.20
2018-12-17T11:53:55.159Z,4.03
2018-12-17T11:56:34.132Z,4.63
2018-12-17T11:59:03.596Z,4.57
2018-12-17T12:01:33.116Z,3.40
2018-12-17T12:04:02.708Z,3.20
2018-12-17T12:06:31.839Z,3.70
2018-12-17T12:09:01.503Z,3.63
2018-12-17T12:11:30.723Z,4.10
2018-12-17T12:14:00.051Z,3.73
2018-12-17T12:16:29.479Z,7.23
2018-12-17T12:18:58.427Z,4.97
2018-12-17T12:21:27.688Z,3.90
2018-12-17T12:23:56.778Z,3.07
2018-12-17T12:26:26.162Z,3.20
2018-12-17T12:28:55.149Z,3.10
2018-12-17T12:31:24.388Z,3.90
2018-12-17T12:33:53.541Z,3.70
2018-12-17T12:36:23.098Z,3.73
2018-12-17T12:38:53.387Z,4.53
2018-12-17T12:41:23.014Z,4.40
2018-12-17T12:43:52.502Z,4.97
2018-12-17T12:46:21.815Z,3.40
2018-12-17T12:48:51.548Z,3.27
2018-12-17T12:51:20.871Z,3.40
2018-12-17T12:53:50.071Z,4.37
2018-12-17T12:56:19.143Z,3.63
2018-12-17T12:58:48.698Z,3.17
2018-12-17T13:01:18.409Z,2.90
2018-12-17T13:03:47.554Z,3.50
2018-12-17T13:06:16.978Z,2.73
2018-12-17T13:08:46.114Z,3.53
2018-12-17T13:11:15.284Z,4.27
2018-12-17T13:13:44.528Z,2.90
2018-12-17T13:16:13.813Z,3.40
2018-12-17T13:18:43.286Z,2.87
2018-12-17T13:21:12.626Z,2.67
2018-12-17T13:23:42.193Z,3.73
2018-12-17T13:26:11.454Z,3.10
2018-12-17T13:28:40.940Z,4.27
2018-12-17T13:31:14.570Z,3.40
2018-12-17T13:33:41.742Z,3.80
2018-12-17T13:36:11.155Z,4.63
2018-12-17T13:38:40.190Z,4.90
2018-12-17T13:41:09.373Z,6.67
2018-12-17T13:43:38.574Z,8.43
2018-12-17T13:46:07.670Z,5.63
2018-12-17T13:48:38.133Z,6.83
2018-12-17T13:51:12.427Z,9.07
2018-12-17T13:53:41.754Z,8.20
2018-12-17T13:56:11.165Z,8.73
2018-12-17T13:58:40.594Z,9.97
2018-12-17T14:01:09.906Z,7.23
2018-12-17T14:03:39.019Z,4.20
2018-12-17T14:06:08.253Z,3.90
2018-12-17T14:08:37.486Z,2.93
2018-12-17T14:11:06.641Z,2.77
2018-12-17T14:13:35.982Z,2.63
2018-12-17T14:16:10.370Z,1.73
2018-12-17T14:18:45.118Z,1.20
2018-12-17T14:21:19.594Z,1.40
2018-12-17T14:23:48.892Z,1.40
2018-12-17T14:26:18.164Z,1.23
2018-12-17T14:28:47.232Z,1.60
2018-12-17T14:31:16.457Z,1.37
2018-12-17T14:33:46.320Z,1.20
2018-12-17T14:36:16.040Z,1.10
2018-12-17T14:38:45.110Z,1.10
2018-12-17T14:41:14.215Z,1.30
2018-12-17T14:43:43.350Z,1.27
2018-12-17T14:46:12.440Z,1.03
2018-12-17T14:48:41.636Z,1.27
2018-12-17T14:51:10.765Z,1.60
2018-12-17T14:53:39.870Z,1.47
2018-12-17T14:56:09.131Z,1.90
2018-12-17T14:58:44.403Z,1.70
2018-12-17T15:01:09.589Z,1.60
2018-12-17T15:03:38.565Z,1.77
2018-12-17T15:06:07.867Z,2.30
2018-12-17T15:08:37.681Z,1.90
2018-12-17T15:11:07.111Z,1.60
2018-12-17T15:13:36.621Z,1.80
2018-12-17T15:16:05.778Z,2.43
2018-12-17T15:18:36.868Z,3.27
2018-12-17T15:21:06.205Z,2.60
2018-12-17T15:23:35.377Z,2.30
2018-12-17T15:26:06.034Z,3.77
2018-12-17T15:28:35.485Z,3.77
2018-12-17T15:31:04.904Z,5.10
2018-12-17T15:33:34.225Z,2.27
2018-12-17T15:36:03.705Z,2.07
2018-12-17T15:38:32.781Z,2.50
2018-12-17T15:41:02.340Z,1.83
2018-12-17T15:43:32.024Z,1.90
2018-12-17T15:46:01.249Z,2.90
2018-12-17T15:48:30.601Z,5.30
2018-12-17T15:50:59.885Z,4.10
2018-12-17T15:53:29.043Z,5.10
2018-12-17T15:55:58.408Z,3.27
2018-12-17T15:58:27.543Z,2.30
2018-12-17T16:00:56.720Z,2.83
2018-12-17T16:03:25.839Z,1.97
2018-12-17T16:05:55.224Z,2.50
2018-12-17T16:08:24.374Z,2.67
2018-12-17T16:10:53.898Z,1.80
2018-12-17T16:13:23.343Z,2.20
2018-12-17T16:15:52.614Z,1.90
2018-12-17T16:18:21.914Z,2.63
2018-12-17T16:20:51.245Z,3.57
2018-12-17T16:23:20.467Z,2.60
2018-12-17T16:25:49.825Z,4.07
2018-12-17T16:28:19.017Z,6.50
2018-12-17T16:30:48.227Z,3.27
2018-12-17T16:33:17.673Z,2.80
2018-12-17T16:35:46.896Z,3.17
2018-12-17T16:38:15.970Z,2.90
2018-12-17T16:40:45.835Z,2.90
2018-12-17T16:43:15.140Z,2.50
2018-12-17T16:45:44.736Z,3.83
2018-12-17T16:48:14.716Z,4.43
2018-12-17T16:50:44.086Z,3.47
2018-12-17T16:53:13.229Z,3.57
2018-12-17T16:55:42.262Z,3.90
2018-12-17T16:58:11.540Z,3.07
2018-12-17T17:00:40.897Z,3.87
2018-12-17T17:03:10.629Z,3.87
2018-12-17T17:05:39.885Z,3.17
2018-12-17T17:08:08.971Z,3.30
2018-12-17T17:10:38.368Z,3.13
2018-12-17T17:13:07.624Z,2.80
2018-12-17T17:15:36.850Z,3.93
2018-12-17T17:18:06.192Z,3.50
2018-12-17T17:20:35.802Z,3.77
2018-12-17T17:23:05.510Z,3.90
2018-12-17T17:25:34.902Z,3.77
2018-12-17T17:28:04.302Z,3.80
2018-12-17T17:30:33.463Z,4.40
2018-12-17T17:33:02.674Z,4.20
2018-12-17T17:35:31.980Z,5.00
2018-12-17T17:38:01.285Z,4.77
2018-12-17T17:40:30.465Z,5.23
2018-12-17T17:42:59.635Z,4.53
2018-12-17T17:45:29.195Z,4.47
2018-12-17T17:47:58.393Z,3.63
2018-12-17T17:50:27.767Z,4.60
2018-12-17T17:52:57.200Z,4.23
2018-12-17T17:55:26.587Z,3.83
2018-12-17T17:57:55.942Z,4.00
2018-12-17T18:00:25.108Z,4.47
2018-12-17T18:02:53.983Z,4.40
2018-12-17T18:05:23.223Z,4.20
2018-12-17T18:07:52.321Z,4.60
2018-12-17T18:10:22.150Z,5.03
2018-12-17T18:12:51.448Z,4.53
2018-12-17T18:15:20.613Z,5.23
2018-12-17T18:17:49.822Z,4.17
2018-12-17T18:20:18.754Z,4.83
2018-12-17T18:22:48.122Z,4.53
2018-12-17T18:25:17.427Z,5.20
2018-12-17T18:27:46.313Z,4.37
2018-12-17T18:30:15.769Z,5.53
2018-12-17T18:32:45.153Z,5.10
2018-12-17T18:35:14.065Z,5.10
2018-12-17T18:37:42.970Z,4.43
2018-12-17T18:40:12.549Z,4.40
2018-12-17T18:42:41.899Z,4.70
2018-12-17T18:45:11.271Z,3.90
2018-12-17T18:47:40.509Z,4.33
2018-12-17T18:50:10.059Z,6.00
2018-12-17T18:52:39.113Z,7.27
2018-12-17T18:55:08.584Z,6.67
2018-12-17T18:57:38.779Z,5.77
2018-12-17T19:00:08.670Z,9.07
2018-12-17T19:02:37.986Z,5.60
2018-12-17T19:05:07.579Z,4.80
2018-12-17T19:07:37.294Z,5.97
2018-12-17T19:10:07.246Z,7.03
2018-12-17T19:12:37.191Z,5.40
2018-12-17T19:15:06.803Z,8.13
2018-12-17T19:17:36.076Z,7.10
2018-12-17T19:20:05.789Z,5.97
2018-12-17T19:22:35.003Z,6.07
2018-12-17T19:25:04.650Z,6.17
2018-12-17T19:27:33.840Z,6.90
2018-12-17T19:30:02.933Z,10.83
2018-12-17T19:32:32.158Z,12.13
2018-12-17T19:35:01.622Z,10.93
2018-12-17T19:37:30.776Z,11.17
2018-12-17T19:40:00.216Z,13.10
2018-12-17T19:42:29.390Z,14.63
2018-12-17T19:44:58.490Z,11.27
2018-12-17T19:47:27.717Z,13.03
2018-12-17T19:49:56.983Z,10.77
2018-12-17T19:52:26.350Z,8.07
2018-12-17T19:54:55.529Z,9.77
2018-12-17T19:57:25.100Z,14.30
2018-12-17T19:59:54.211Z,14.07
2018-12-17T20:02:23.452Z,9.87
2018-12-17T20:04:52.554Z,8.50
2018-12-17T20:07:21.889Z,6.50
2018-12-17T20:09:51.601Z,6.77
2018-12-17T20:12:20.877Z,7.20
2018-12-17T20:14:50.234Z,7.03
2018-12-17T20:17:19.515Z,7.23
2018-12-17T20:19:48.710Z,6.93
2018-12-17T20:22:17.783Z,7.07
2018-12-17T20:24:47.716Z,7.20
2018-12-17T20:27:16.771Z,6.53
2018-12-17T20:29:50.462Z,6.77
2018-12-17T20:32:17.214Z,8.27
2018-12-17T20:34:46.933Z,9.10
2018-12-17T20:37:16.165Z,7.07
2018-12-17T20:39:45.850Z,7.60
2018-12-17T20:42:15.218Z,6.60
2018-12-17T20:44:44.449Z,8.47
2018-12-17T20:47:13.624Z,7.97
2018-12-17T20:49:42.754Z,7.93
2018-12-17T20:52:11.992Z,7.83
2018-12-17T20:54:41.053Z,8.73
2018-12-17T20:57:10.277Z,10.50
2018-12-17T20:59:39.634Z,8.50
2018-12-17T21:02:08.579Z,7.77
2018-12-17T21:04:38.011Z,8.07
2018-12-17T21:07:07.059Z,7.70
2018-12-17T21:09:36.419Z,10.93
2018-12-17T21:12:05.721Z,9.97
2018-12-17T21:14:35.035Z,10.33
2018-12-17T21:17:04.361Z,9.53
2018-12-17T21:19:33.450Z,10.80
2018-12-17T21:22:02.582Z,9.83
2018-12-17T21:24:32.006Z,8.87
2018-12-17T21:27:01.290Z,10.23
2018-12-17T21:29:30.374Z,10.83
2018-12-17T21:31:59.721Z,9.87
2018-12-17T21:34:29.191Z,9.10
2018-12-17T21:36:58.544Z,9.73
2018-12-17T21:39:27.664Z,10.87
2018-12-17T21:41:56.915Z,12.07
2018-12-17T21:44:26.370Z,11.83
2018-12-17T21:46:55.824Z,11.77
2018-12-17T21:49:25.054Z,12.33
2018-12-17T21:51:54.581Z,15.67
2018-12-17T21:54:24.031Z,12.20
2018-12-17T21:56:53.226Z,13.53
2018-12-17T21:59:22.899Z,12.87
2018-12-17T22:01:51.974Z,13.70
2018-12-17T22:04:21.075Z,13.10
2018-12-17T22:06:50.342Z,11.63
2018-12-17T22:09:19.487Z,12.07
2018-12-17T22:11:49.045Z,14.57
2018-12-17T22:14:18.365Z,14.40
2018-12-17T22:16:47.579Z,10.87
2018-12-17T22:19:16.805Z,10.20
2018-12-17T22:21:45.937Z,10.20
2018-12-17T22:24:15.110Z,10.60
2018-12-17T22:26:44.366Z,9.47
2018-12-17T22:29:13.417Z,10.73
2018-12-17T22:31:42.872Z,13.03
2018-12-17T22:34:12.150Z,12.03
2018-12-17T22:36:41.447Z,12.67
2018-12-17T22:39:10.765Z,11.27
2018-12-17T22:41:40.054Z,11.80
2018-12-17T22:44:09.199Z,10.83
2018-12-17T22:46:38.483Z,11.37
2018-12-17T22:49:08.129Z,12.73
2018-12-17T22:51:37.457Z,11.97
2018-12-17T22:54:07.619Z,11.07
2018-12-17T22:56:37.253Z,12.13
2018-12-17T22:59:06.893Z,13.20
2018-12-17T23:01:36.177Z,13.37
2018-12-17T23:04:05.905Z,15.97
2018-12-17T23:06:35.395Z,12.80
2018-12-17T23:09:04.823Z,13.50
2018-12-17T23:11:50.181Z,13.43
2018-12-17T23:14:30.252Z,14.10
2018-12-17T23:17:10.417Z,14.17
2018-12-17T23:19:46.626Z,16.03
2018-12-17T23:22:16.763Z,14.83
2018-12-17T23:24:46.024Z,15.03
2018-12-17T23:27:15.346Z,14.33
2018-12-17T23:29:44.777Z,12.87
2018-12-17T23:32:13.986Z,12.93
2018-12-17T23:34:43.194Z,13.93
2018-12-17T23:37:12.416Z,14.30
2018-12-17T23:39:41.666Z,13.80
2018-12-17T23:42:10.733Z,13.17
2018-12-17T23:44:40.536Z,12.83
2018-12-17T23:47:09.674Z,11.50
2018-12-17T23:49:39.522Z,10.70
2018-12-17T23:52:08.944Z,10.03
2018-12-17T23:54:38.066Z,9.37
2018-12-17T23:57:07.460Z,8.90
2018-12-17T23:59:36.370Z,9.77
